createdAt,value
2022-12-25T00:00:06.277Z,92204.00
2022-12-25T00:01:06.210Z,92204.00
2022-12-25T00:02:06.176Z,92204.00
2022-12-25T00:03:06.234Z,92204.00
2022-12-25T00:04:06.242Z,92200.00
2022-12-25T00:05:06.131Z,92202.00
2022-12-25T00:06:06.114Z,92204.00
2022-12-25T00:07:06.137Z,92206.00
2022-12-25T00:08:06.114Z,92204.00
2022-12-25T00:09:06.127Z,92208.00
2022-12-25T00:10:06.091Z,92204.00
2022-12-25T00:11:06.077Z,92204.00
2022-12-25T00:12:06.098Z,92204.00
2022-12-25T00:13:06.067Z,92204.00
2022-12-25T00:14:06.059Z,92200.00
2022-12-25T00:15:06.070Z,92206.00
2022-12-25T00:16:06.108Z,92202.00
2022-12-25T00:17:06.017Z,92200.00
2022-12-25T00:18:06.031Z,92196.00
2022-12-25T00:19:06.029Z,92196.00
2022-12-25T00:20:05.999Z,92196.00
2022-12-25T00:21:06.038Z,92194.00
2022-12-25T00:22:05.999Z,92192.00
2022-12-25T00:23:05.972Z,92190.00
2022-12-25T00:24:06.002Z,92192.00
2022-12-25T00:25:05.955Z,92190.00
2022-12-25T00:26:05.965Z,92190.00
2022-12-25T00:27:05.935Z,92192.00
2022-12-25T00:28:05.942Z,92192.00
2022-12-25T00:29:05.956Z,92192.00
2022-12-25T00:30:05.943Z,92190.00
2022-12-25T00:31:05.905Z,92188.00
2022-12-25T00:32:05.894Z,92188.00
2022-12-25T00:33:05.879Z,92184.00
2022-12-25T00:34:05.883Z,92186.00
2022-12-25T00:35:05.867Z,92186.00
2022-12-25T00:36:05.888Z,92184.00
2022-12-25T00:37:05.848Z,92186.00
2022-12-25T00:38:05.829Z,92186.00
2022-12-25T00:39:05.852Z,92186.00
2022-12-25T00:40:05.818Z,92188.00
2022-12-25T00:41:05.835Z,92186.00
2022-12-25T00:42:05.808Z,92184.00
2022-12-25T00:43:05.793Z,92183.00
2022-12-25T00:44:05.800Z,92183.00
2022-12-25T00:45:05.790Z,92183.00
2022-12-25T00:46:05.864Z,92186.00
2022-12-25T00:47:05.805Z,92184.00
2022-12-25T00:48:05.745Z,92183.00
2022-12-25T00:49:05.750Z,92184.00
2022-12-25T00:50:05.748Z,92184.00
2022-12-25T00:51:05.750Z,92184.00
2022-12-25T00:52:05.725Z,92181.00
2022-12-25T00:53:05.723Z,92181.00
2022-12-25T00:54:05.721Z,92184.00
2022-12-25T00:55:05.687Z,92188.00
2022-12-25T00:56:05.691Z,92196.00
2022-12-25T00:57:05.712Z,92198.00
2022-12-25T00:58:05.675Z,92198.00
2022-12-25T00:59:05.642Z,92200.00
2022-12-25T01:00:05.641Z,92198.00
2022-12-25T01:01:05.676Z,92200.00
2022-12-25T01:02:05.750Z,92198.00
2022-12-25T01:03:05.694Z,92200.00
2022-12-25T01:04:05.601Z,92196.00
2022-12-25T01:05:05.596Z,92196.00
2022-12-25T01:06:05.595Z,92192.00
2022-12-25T01:07:05.606Z,92194.00
2022-12-25T01:08:05.570Z,92192.00
2022-12-25T01:09:05.561Z,92196.00
2022-12-25T01:10:05.551Z,92198.00
2022-12-25T01:11:05.538Z,92198.00
2022-12-25T01:12:05.532Z,92200.00
2022-12-25T01:13:05.559Z,92196.00
2022-12-25T01:14:05.514Z,92192.00
2022-12-25T01:15:05.506Z,92188.00
2022-12-25T01:16:05.514Z,92188.00
2022-12-25T01:17:05.495Z,92188.00
2022-12-25T01:18:07.902Z,92188.00
2022-12-25T01:19:05.489Z,92192.00
2022-12-25T01:20:05.467Z,92196.00
2022-12-25T01:21:05.462Z,92198.00
2022-12-25T01:22:05.440Z,92196.00
2022-12-25T01:23:05.500Z,92188.00
2022-12-25T01:24:05.432Z,92186.00
2022-12-25T01:25:05.421Z,92183.00
2022-12-25T01:26:05.805Z,92183.00
2022-12-25T01:27:05.412Z,92184.00
2022-12-25T01:28:05.412Z,92186.00
2022-12-25T01:29:05.384Z,92186.00
2022-12-25T01:30:05.392Z,92179.00
2022-12-25T01:31:05.369Z,92179.00
2022-12-25T01:32:05.417Z,92181.00
2022-12-25T01:33:05.369Z,92183.00
2022-12-25T01:34:05.376Z,92184.00
2022-12-25T01:35:05.361Z,92188.00
2022-12-25T01:36:05.321Z,92192.00
2022-12-25T01:37:05.338Z,92188.00
2022-12-25T01:38:05.306Z,92186.00
2022-12-25T01:39:05.322Z,92186.00
2022-12-25T01:40:05.286Z,92181.00
2022-12-25T01:41:05.278Z,92179.00
2022-12-25T01:42:05.281Z,92179.00
2022-12-25T01:43:05.251Z,92179.00
2022-12-25T01:44:05.289Z,92181.00
2022-12-25T01:45:05.234Z,92181.00
2022-12-25T01:46:05.299Z,92183.00
2022-12-25T01:47:05.224Z,92186.00
2022-12-25T01:48:05.223Z,92190.00
2022-12-25T01:49:05.228Z,92192.00
2022-12-25T01:50:05.197Z,92192.00
2022-12-25T01:51:05.231Z,92192.00
2022-12-25T01:52:05.168Z,92190.00
2022-12-25T01:53:05.162Z,92190.00
2022-12-25T01:54:05.176Z,92192.00
2022-12-25T01:55:05.169Z,92192.00
2022-12-25T01:56:05.154Z,92190.00
2022-12-25T01:57:05.135Z,92190.00
2022-12-25T01:58:05.122Z,92190.00
2022-12-25T01:59:05.130Z,92188.00
2022-12-25T02:00:05.097Z,92190.00
2022-12-25T02:01:05.152Z,92192.00
2022-12-25T02:02:05.314Z,92192.00
2022-12-25T02:03:05.160Z,92194.00
2022-12-25T02:04:05.087Z,92192.00
2022-12-25T02:05:05.055Z,92190.00
2022-12-25T02:06:05.063Z,92186.00
2022-12-25T02:07:05.048Z,92184.00
2022-12-25T02:08:05.042Z,92184.00
2022-12-25T02:09:05.021Z,92184.00
2022-12-25T02:10:05.008Z,92190.00
2022-12-25T02:11:05.031Z,92190.00
2022-12-25T02:12:05.007Z,92190.00
2022-12-25T02:13:04.983Z,92186.00
2022-12-25T02:14:04.971Z,92184.00
2022-12-25T02:15:06.221Z,92181.00
2022-12-25T02:16:04.999Z,92181.00
2022-12-25T02:17:05.061Z,92179.00
2022-12-25T02:18:04.955Z,92181.00
2022-12-25T02:19:04.955Z,92181.00
2022-12-25T02:20:04.954Z,92181.00
2022-12-25T02:21:04.939Z,92184.00
2022-12-25T02:22:04.902Z,92179.00
2022-12-25T02:23:04.901Z,92181.00
2022-12-25T02:24:04.904Z,92183.00
2022-12-25T02:25:04.913Z,92184.00
2022-12-25T02:26:04.873Z,92183.00
2022-12-25T02:27:04.899Z,92183.00
2022-12-25T02:28:04.930Z,92181.00
2022-12-25T02:29:04.871Z,92181.00
2022-12-25T02:30:04.858Z,92186.00
2022-12-25T02:31:04.864Z,92186.00
2022-12-25T02:32:04.888Z,92186.00
2022-12-25T02:33:04.802Z,92188.00
2022-12-25T02:34:04.842Z,92186.00
2022-12-25T02:35:04.779Z,92188.00
2022-12-25T02:36:04.833Z,92188.00
2022-12-25T02:37:04.776Z,92188.00
2022-12-25T02:38:04.766Z,92186.00
2022-12-25T02:39:04.767Z,92186.00
2022-12-25T02:40:04.739Z,92190.00
2022-12-25T02:41:04.741Z,92188.00
2022-12-25T02:42:04.781Z,92188.00
2022-12-25T02:43:04.713Z,92188.00
2022-12-25T02:44:04.728Z,92188.00
2022-12-25T02:45:04.694Z,92186.00
2022-12-25T02:46:04.742Z,92184.00
2022-12-25T02:47:04.711Z,92183.00
2022-12-25T02:48:04.670Z,92183.00
2022-12-25T02:49:04.657Z,92183.00
2022-12-25T02:50:04.698Z,92184.00
2022-12-25T02:51:04.643Z,92183.00
2022-12-25T02:52:04.639Z,92183.00
2022-12-25T02:53:04.677Z,92183.00
2022-12-25T02:54:04.627Z,92190.00
2022-12-25T02:55:04.609Z,92186.00
2022-12-25T02:56:04.615Z,92186.00
2022-12-25T02:57:04.594Z,92188.00
2022-12-25T02:58:04.618Z,92186.00
2022-12-25T02:59:04.575Z,92188.00
2022-12-25T03:00:04.570Z,92190.00
2022-12-25T03:01:04.628Z,92188.00
2022-12-25T03:02:04.628Z,92188.00
2022-12-25T03:03:04.580Z,92190.00
2022-12-25T03:04:04.573Z,92188.00
2022-12-25T03:05:04.521Z,92183.00
2022-12-25T03:06:04.518Z,92183.00
2022-12-25T03:07:04.517Z,92181.00
2022-12-25T03:08:04.502Z,92177.00
2022-12-25T03:09:04.505Z,92173.00
2022-12-25T03:10:04.467Z,92165.00
2022-12-25T03:11:04.478Z,92167.00
2022-12-25T03:12:04.718Z,92169.00
2022-12-25T03:13:04.687Z,92167.00
2022-12-25T03:14:04.696Z,92165.00
2022-12-25T03:15:04.662Z,92161.00
2022-12-25T03:16:04.659Z,92159.00
2022-12-25T03:17:04.660Z,92155.00
2022-12-25T03:18:04.660Z,92157.00
2022-12-25T03:19:04.749Z,92153.00
2022-12-25T03:20:04.746Z,92155.00
2022-12-25T03:21:04.807Z,92157.00
2022-12-25T03:22:04.880Z,92157.00
2022-12-25T03:23:04.912Z,92159.00
2022-12-25T03:24:04.948Z,92159.00
2022-12-25T03:25:05.026Z,92161.00
2022-12-25T03:26:05.048Z,92161.00
2022-12-25T03:27:05.093Z,92159.00
2022-12-25T03:28:05.162Z,92159.00
2022-12-25T03:29:05.195Z,92159.00
2022-12-25T03:30:05.248Z,92157.00
2022-12-25T03:31:05.326Z,92157.00
2022-12-25T03:32:05.344Z,92157.00
2022-12-25T03:33:17.978Z,92159.00
2022-12-25T03:34:06.409Z,92159.00
2022-12-25T03:35:06.514Z,92157.00
2022-12-25T03:36:05.364Z,92157.00
2022-12-25T03:37:05.356Z,92151.00
2022-12-25T03:38:05.370Z,92149.00
2022-12-25T03:39:05.375Z,92145.00
2022-12-25T03:40:05.323Z,92145.00
2022-12-25T03:41:05.326Z,92145.00
2022-12-25T03:42:05.312Z,92147.00
2022-12-25T03:43:05.305Z,92147.00
2022-12-25T03:44:05.326Z,92145.00
2022-12-25T03:45:05.287Z,92143.00
2022-12-25T03:46:05.353Z,92143.00
2022-12-25T03:47:05.286Z,92143.00
2022-12-25T03:48:05.265Z,92141.00
2022-12-25T03:49:05.270Z,92141.00
2022-12-25T03:50:05.242Z,92139.00
2022-12-25T03:51:05.266Z,92139.00
2022-12-25T03:52:05.247Z,92135.00
2022-12-25T03:53:05.212Z,92131.00
2022-12-25T03:54:05.230Z,92131.00
2022-12-25T03:55:05.197Z,92131.00
2022-12-25T03:56:05.220Z,92129.00
2022-12-25T03:57:05.173Z,92128.00
2022-12-25T03:58:05.182Z,92128.00
2022-12-25T03:59:05.194Z,92126.00
2022-12-25T04:00:05.149Z,92126.00
2022-12-25T04:01:05.154Z,92129.00
2022-12-25T04:02:05.279Z,92129.00
2022-12-25T04:03:05.137Z,92131.00
2022-12-25T04:04:05.123Z,92131.00
2022-12-25T04:05:05.261Z,92128.00
2022-12-25T04:06:05.094Z,92129.00
2022-12-25T04:07:05.099Z,92129.00
2022-12-25T04:08:05.087Z,92129.00
2022-12-25T04:09:05.094Z,92131.00
2022-12-25T04:10:05.086Z,92135.00
2022-12-25T04:11:05.056Z,92133.00
2022-12-25T04:12:05.038Z,92133.00
2022-12-25T04:13:05.047Z,92131.00
2022-12-25T04:14:05.031Z,92129.00
2022-12-25T04:15:05.039Z,92128.00
2022-12-25T04:16:05.077Z,92128.00
2022-12-25T04:17:05.007Z,92131.00
2022-12-25T04:18:04.985Z,92129.00
2022-12-25T04:19:04.987Z,92131.00
2022-12-25T04:20:05.002Z,92133.00
2022-12-25T04:21:04.977Z,92135.00
2022-12-25T04:22:04.963Z,92137.00
2022-12-25T04:23:04.947Z,92135.00
2022-12-25T04:24:04.968Z,92137.00
2022-12-25T04:25:04.949Z,92133.00
2022-12-25T04:26:04.921Z,92137.00
2022-12-25T04:27:04.916Z,92141.00
2022-12-25T04:28:04.903Z,92143.00
2022-12-25T04:29:04.913Z,92143.00
2022-12-25T04:30:04.915Z,92147.00
2022-12-25T04:31:04.938Z,92149.00
2022-12-25T04:32:04.863Z,92147.00
2022-12-25T04:33:04.885Z,92147.00
2022-12-25T04:34:04.914Z,92149.00
2022-12-25T04:35:04.940Z,92153.00
2022-12-25T04:36:04.843Z,92149.00
2022-12-25T04:37:04.839Z,92151.00
2022-12-25T04:38:04.819Z,92149.00
2022-12-25T04:39:04.802Z,92149.00
2022-12-25T04:40:04.812Z,92151.00
2022-12-25T04:41:04.794Z,92151.00
2022-12-25T04:42:04.796Z,92155.00
2022-12-25T04:43:04.789Z,92155.00
2022-12-25T04:44:04.771Z,92153.00
2022-12-25T04:45:04.754Z,92153.00
2022-12-25T04:46:04.787Z,92153.00
2022-12-25T04:47:10.906Z,92155.00
2022-12-25T04:48:05.747Z,92153.00
2022-12-25T04:49:04.710Z,92151.00
2022-12-25T04:50:04.724Z,92149.00
2022-12-25T04:51:04.699Z,92145.00
2022-12-25T04:52:04.678Z,92145.00
2022-12-25T04:53:04.706Z,92145.00
2022-12-25T04:54:04.668Z,92145.00
2022-12-25T04:55:04.652Z,92147.00
2022-12-25T04:56:04.655Z,92151.00
2022-12-25T04:57:04.689Z,92149.00
2022-12-25T04:58:04.659Z,92149.00
2022-12-25T04:59:04.622Z,92147.00
2022-12-25T05:00:04.616Z,92149.00
2022-12-25T05:01:04.630Z,92149.00
2022-12-25T05:02:04.712Z,92149.00
2022-12-25T05:03:04.669Z,92149.00
2022-12-25T05:04:04.571Z,92153.00
2022-12-25T05:05:04.576Z,92153.00
2022-12-25T05:06:04.559Z,92155.00
2022-12-25T05:07:04.577Z,92153.00
2022-12-25T05:08:04.568Z,92151.00
2022-12-25T05:09:04.528Z,92153.00
2022-12-25T05:10:04.562Z,92151.00
2022-12-25T05:11:04.581Z,92147.00
2022-12-25T05:12:04.512Z,92149.00
2022-12-25T05:13:04.565Z,92149.00
2022-12-25T05:14:04.508Z,92151.00
2022-12-25T05:15:04.529Z,92151.00
2022-12-25T05:16:04.551Z,92151.00
2022-12-25T05:17:04.463Z,92149.00
2022-12-25T05:18:04.491Z,92153.00
2022-12-25T05:19:04.466Z,92157.00
2022-12-25T05:20:04.433Z,92159.00
2022-12-25T05:21:04.442Z,92163.00
2022-12-25T05:22:04.424Z,92165.00
2022-12-25T05:23:04.403Z,92163.00
2022-12-25T05:24:04.431Z,92161.00
2022-12-25T05:25:04.420Z,92163.00
2022-12-25T05:26:04.382Z,92161.00
2022-12-25T05:27:04.363Z,92165.00
2022-12-25T05:28:04.359Z,92167.00
2022-12-25T05:29:04.377Z,92167.00
2022-12-25T05:30:04.368Z,92163.00
2022-12-25T05:31:04.409Z,92165.00
2022-12-25T05:32:04.350Z,92163.00
2022-12-25T05:33:04.381Z,92163.00
2022-12-25T05:34:04.314Z,92163.00
2022-12-25T05:35:04.306Z,92163.00
2022-12-25T05:36:04.295Z,92161.00
2022-12-25T05:37:04.284Z,92161.00
2022-12-25T05:38:04.305Z,92159.00
2022-12-25T05:39:04.273Z,92159.00
2022-12-25T05:40:04.271Z,92159.00
2022-12-25T05:41:04.242Z,92161.00
2022-12-25T05:42:04.268Z,92159.00
2022-12-25T05:43:04.262Z,92163.00
2022-12-25T05:44:04.221Z,92165.00
2022-12-25T05:45:04.243Z,92165.00
2022-12-25T05:46:04.217Z,92169.00
2022-12-25T05:47:04.380Z,92167.00
2022-12-25T05:48:04.257Z,92169.00
2022-12-25T05:49:04.220Z,92171.00
2022-12-25T05:50:04.160Z,92167.00
2022-12-25T05:51:04.217Z,92167.00
2022-12-25T05:52:04.199Z,92169.00
2022-12-25T05:53:08.053Z,92171.00
2022-12-25T05:54:04.126Z,92169.00
2022-12-25T05:55:04.137Z,92167.00
2022-12-25T05:56:04.159Z,92169.00
2022-12-25T05:57:04.106Z,92171.00
2022-12-25T05:58:04.094Z,92169.00
2022-12-25T05:59:04.091Z,92169.00
2022-12-25T06:00:04.086Z,92165.00
2022-12-25T06:01:04.069Z,92165.00
2022-12-25T06:02:04.140Z,92163.00
2022-12-25T06:03:04.205Z,92163.00
2022-12-25T06:04:10.174Z,92161.00
2022-12-25T06:05:05.069Z,92165.00
2022-12-25T06:06:04.033Z,92165.00
2022-12-25T06:07:04.014Z,92171.00
2022-12-25T06:08:04.010Z,92169.00
2022-12-25T06:09:04.021Z,92169.00
2022-12-25T06:10:03.978Z,92167.00
2022-12-25T06:11:04.007Z,92165.00
2022-12-25T06:12:03.967Z,92161.00
2022-12-25T06:13:03.960Z,92165.00
2022-12-25T06:14:03.978Z,92165.00
2022-12-25T06:15:03.946Z,92163.00
2022-12-25T06:16:03.957Z,92161.00
2022-12-25T06:17:04.202Z,92161.00
2022-12-25T06:18:03.910Z,92161.00
2022-12-25T06:19:03.901Z,92161.00
2022-12-25T06:20:03.913Z,92161.00
2022-12-25T06:21:03.915Z,92159.00
2022-12-25T06:22:03.878Z,92159.00
2022-12-25T06:23:03.871Z,92159.00
2022-12-25T06:24:03.871Z,92157.00
2022-12-25T06:25:03.856Z,92159.00
2022-12-25T06:26:03.867Z,92159.00
2022-12-25T06:27:03.831Z,92157.00
2022-12-25T06:28:03.827Z,92163.00
2022-12-25T06:29:03.808Z,92161.00
2022-12-25T06:30:03.812Z,92163.00
2022-12-25T06:31:03.914Z,92161.00
2022-12-25T06:32:03.892Z,92163.00
2022-12-25T06:33:03.780Z,92161.00
2022-12-25T06:34:03.786Z,92159.00
2022-12-25T06:35:03.757Z,92159.00
2022-12-25T06:36:03.788Z,92157.00
2022-12-25T06:37:03.750Z,92155.00
2022-12-25T06:38:03.753Z,92153.00
2022-12-25T06:39:03.720Z,92153.00
2022-12-25T06:40:03.712Z,92153.00
2022-12-25T06:41:03.745Z,92157.00
2022-12-25T06:42:03.697Z,92157.00
2022-12-25T06:43:03.687Z,92159.00
2022-12-25T06:44:03.834Z,92163.00
2022-12-25T06:45:03.675Z,92163.00
2022-12-25T06:46:04.085Z,92161.00
2022-12-25T06:47:03.658Z,92159.00
2022-12-25T06:48:03.651Z,92161.00
2022-12-25T06:49:03.642Z,92161.00
2022-12-25T06:50:03.621Z,92159.00
2022-12-25T06:51:03.643Z,92159.00
2022-12-25T06:52:03.602Z,92157.00
2022-12-25T06:53:03.597Z,92151.00
2022-12-25T06:54:03.608Z,92149.00
2022-12-25T06:55:03.584Z,92151.00
2022-12-25T06:56:03.658Z,92151.00
2022-12-25T06:57:03.713Z,92153.00
2022-12-25T06:58:03.750Z,92155.00
2022-12-25T06:59:03.785Z,92151.00
2022-12-25T07:00:03.868Z,92153.00
2022-12-25T07:01:03.941Z,92155.00
2022-12-25T07:02:04.032Z,92153.00
2022-12-25T07:03:04.100Z,92153.00
2022-12-25T07:04:04.039Z,92157.00
2022-12-25T07:05:04.094Z,92151.00
2022-12-25T07:06:04.144Z,92153.00
2022-12-25T07:07:08.776Z,92151.00
2022-12-25T07:08:05.186Z,92149.00
2022-12-25T07:09:04.171Z,92147.00
2022-12-25T07:10:04.167Z,92149.00
2022-12-25T07:11:04.184Z,92147.00
2022-12-25T07:12:04.160Z,92151.00
2022-12-25T07:13:04.169Z,92151.00
2022-12-25T07:14:04.132Z,92149.00
2022-12-25T07:15:04.108Z,92151.00
2022-12-25T07:16:04.161Z,92149.00
2022-12-25T07:17:04.127Z,92153.00
2022-12-25T07:18:04.092Z,92157.00
2022-12-25T07:19:04.079Z,92157.00
2022-12-25T07:20:04.089Z,92157.00
2022-12-25T07:21:04.075Z,92155.00
2022-12-25T07:22:04.080Z,92153.00
2022-12-25T07:23:04.072Z,92155.00
2022-12-25T07:24:04.043Z,92153.00
2022-12-25T07:25:04.024Z,92159.00
2022-12-25T07:26:04.021Z,92155.00
2022-12-25T07:27:04.017Z,92161.00
2022-12-25T07:28:04.052Z,92159.00
2022-12-25T07:29:04.007Z,92159.00
2022-12-25T07:30:03.998Z,92157.00
2022-12-25T07:31:03.991Z,92153.00
2022-12-25T07:32:04.053Z,92157.00
2022-12-25T07:33:03.966Z,92155.00
2022-12-25T07:34:03.957Z,92153.00
2022-12-25T07:35:03.942Z,92153.00
2022-12-25T07:36:03.955Z,92149.00
2022-12-25T07:37:03.930Z,92147.00
2022-12-25T07:38:03.922Z,92149.00
2022-12-25T07:39:03.910Z,92147.00
2022-12-25T07:40:03.897Z,92143.00
2022-12-25T07:41:03.911Z,92145.00
2022-12-25T07:42:03.888Z,92141.00
2022-12-25T07:43:03.865Z,92141.00
2022-12-25T07:44:03.874Z,92139.00
2022-12-25T07:45:03.870Z,92139.00
2022-12-25T07:46:03.932Z,92139.00
2022-12-25T07:47:03.834Z,92141.00
2022-12-25T07:48:05.873Z,92135.00
2022-12-25T07:49:03.818Z,92139.00
2022-12-25T07:50:03.801Z,92137.00
2022-12-25T07:51:03.820Z,92141.00
2022-12-25T07:52:03.784Z,92137.00
2022-12-25T07:53:03.800Z,92139.00
2022-12-25T07:54:03.772Z,92139.00
2022-12-25T07:55:03.755Z,92139.00
2022-12-25T07:56:03.783Z,92137.00
2022-12-25T07:57:03.749Z,92137.00
2022-12-25T07:58:03.727Z,92135.00
2022-12-25T07:59:03.735Z,92139.00
2022-12-25T08:00:03.727Z,92139.00
2022-12-25T08:01:03.854Z,92137.00
2022-12-25T08:02:03.942Z,92137.00
2022-12-25T08:03:04.071Z,92137.00
2022-12-25T08:04:03.774Z,92137.00
2022-12-25T08:05:03.666Z,92145.00
2022-12-25T08:06:03.669Z,92137.00
2022-12-25T08:07:03.716Z,92137.00
2022-12-25T08:08:03.651Z,92139.00
2022-12-25T08:09:03.641Z,92141.00
2022-12-25T08:10:03.727Z,92143.00
2022-12-25T08:11:03.626Z,92143.00
2022-12-25T08:12:03.627Z,92141.00
2022-12-25T08:13:07.637Z,92141.00
2022-12-25T08:14:04.605Z,92143.00
2022-12-25T08:15:03.586Z,92143.00
2022-12-25T08:16:03.585Z,92141.00
2022-12-25T08:17:03.665Z,92139.00
2022-12-25T08:18:03.596Z,92139.00
2022-12-25T08:19:03.552Z,92141.00
2022-12-25T08:20:03.537Z,92141.00
2022-12-25T08:21:03.550Z,92143.00
2022-12-25T08:22:03.551Z,92143.00
2022-12-25T08:23:03.516Z,92143.00
2022-12-25T08:24:03.529Z,92143.00
2022-12-25T08:25:03.515Z,92139.00
2022-12-25T08:26:05.487Z,92139.00
2022-12-25T08:27:03.465Z,92137.00
2022-12-25T08:28:03.484Z,92141.00
2022-12-25T08:29:03.484Z,92141.00
2022-12-25T08:30:03.457Z,92147.00
2022-12-25T08:31:03.475Z,92151.00
2022-12-25T08:32:03.426Z,92149.00
2022-12-25T08:33:03.430Z,92153.00
2022-12-25T08:34:03.448Z,92155.00
2022-12-25T08:35:03.457Z,92159.00
2022-12-25T08:36:03.530Z,92155.00
2022-12-25T08:37:03.568Z,92155.00
2022-12-25T08:38:03.632Z,92153.00
2022-12-25T08:39:03.719Z,92151.00
2022-12-25T08:40:03.869Z,92151.00
2022-12-25T08:41:03.786Z,92153.00
2022-12-25T08:42:03.808Z,92155.00
2022-12-25T08:43:03.863Z,92153.00
2022-12-25T08:44:03.932Z,92153.00
2022-12-25T08:45:03.956Z,92153.00
2022-12-25T08:46:04.111Z,92153.00
2022-12-25T08:47:04.064Z,92151.00
2022-12-25T08:48:04.111Z,92149.00
2022-12-25T08:49:04.204Z,92149.00
2022-12-25T08:50:04.198Z,92149.00
2022-12-25T08:51:04.261Z,92153.00
2022-12-25T08:52:04.440Z,92157.00
2022-12-25T08:53:04.461Z,92153.00
2022-12-25T08:54:04.525Z,92153.00
2022-12-25T08:55:04.611Z,92151.00
2022-12-25T08:56:04.621Z,92153.00
2022-12-25T08:57:04.708Z,92155.00
2022-12-25T08:58:04.702Z,92153.00
2022-12-25T08:59:04.842Z,92151.00
2022-12-25T09:00:04.851Z,92149.00
2022-12-25T09:01:04.968Z,92153.00
2022-12-25T09:02:04.983Z,92151.00
2022-12-25T09:03:05.095Z,92147.00
2022-12-25T09:04:04.866Z,92147.00
2022-12-25T09:05:04.954Z,92141.00
2022-12-25T09:06:04.942Z,92137.00
2022-12-25T09:07:04.927Z,92137.00
2022-12-25T09:08:04.930Z,92141.00
2022-12-25T09:09:04.934Z,92137.00
2022-12-25T09:10:04.898Z,92137.00
2022-12-25T09:11:04.962Z,92137.00
2022-12-25T09:12:05.015Z,92135.00
2022-12-25T09:13:05.055Z,92137.00
2022-12-25T09:14:05.185Z,92133.00
2022-12-25T09:15:05.388Z,92131.00
2022-12-25T09:16:05.519Z,92129.00
2022-12-25T09:17:05.332Z,92131.00
2022-12-25T09:18:05.361Z,92129.00
2022-12-25T09:19:05.434Z,92126.00
2022-12-25T09:20:05.443Z,92126.00
2022-12-25T09:21:05.383Z,92122.00
2022-12-25T09:22:05.474Z,92124.00
2022-12-25T09:23:11.619Z,92122.00
2022-12-25T09:24:06.495Z,92122.00
2022-12-25T09:25:05.477Z,92118.00
2022-12-25T09:26:05.614Z,92114.00
2022-12-25T09:27:05.580Z,92112.00
2022-12-25T09:28:05.428Z,92112.00
2022-12-25T09:29:05.431Z,92114.00
2022-12-25T09:30:05.368Z,92116.00
2022-12-25T09:31:05.515Z,92114.00
2022-12-25T09:32:05.161Z,92112.00
2022-12-25T09:33:05.185Z,92114.00
2022-12-25T09:34:05.154Z,92114.00
2022-12-25T09:35:05.263Z,92112.00
2022-12-25T09:36:05.153Z,92112.00
2022-12-25T09:37:05.130Z,92112.00
2022-12-25T09:38:05.105Z,92108.00
2022-12-25T09:39:05.119Z,92112.00
2022-12-25T09:40:05.147Z,92108.00
2022-12-25T09:41:05.251Z,92108.00
2022-12-25T09:42:05.214Z,92106.00
2022-12-25T09:43:05.271Z,92104.00
2022-12-25T09:44:05.321Z,92108.00
2022-12-25T09:45:05.355Z,92106.00
2022-12-25T09:46:05.484Z,92106.00
2022-12-25T09:47:05.463Z,92104.00
2022-12-25T09:48:05.509Z,92102.00
2022-12-25T09:49:05.581Z,92098.00
2022-12-25T09:50:05.603Z,92094.00
2022-12-25T09:51:05.652Z,92098.00
2022-12-25T09:52:05.697Z,92100.00
2022-12-25T09:53:05.757Z,92100.00
2022-12-25T09:54:05.821Z,92098.00
2022-12-25T09:55:05.961Z,92096.00
2022-12-25T09:56:05.913Z,92094.00
2022-12-25T09:57:05.949Z,92092.00
2022-12-25T09:58:06.003Z,92090.00
2022-12-25T09:59:06.052Z,92088.00
2022-12-25T10:00:06.136Z,92088.00
2022-12-25T10:01:06.181Z,92086.00
2022-12-25T10:02:06.376Z,92088.00
2022-12-25T10:03:06.665Z,92088.00
2022-12-25T10:04:06.254Z,92086.00
2022-12-25T10:05:06.243Z,92086.00
2022-12-25T10:06:06.225Z,92084.00
2022-12-25T10:07:06.214Z,92084.00
2022-12-25T10:08:06.262Z,92084.00
2022-12-25T10:09:06.209Z,92088.00
2022-12-25T10:10:06.192Z,92090.00
2022-12-25T10:11:06.225Z,92092.00
2022-12-25T10:12:06.271Z,92094.00
2022-12-25T10:13:06.381Z,92094.00
2022-12-25T10:14:06.388Z,92098.00
2022-12-25T10:15:06.422Z,92096.00
2022-12-25T10:16:06.530Z,92092.00
2022-12-25T10:17:06.530Z,92092.00
2022-12-25T10:18:06.602Z,92092.00
2022-12-25T10:19:06.629Z,92092.00
2022-12-25T10:20:06.674Z,92090.00
2022-12-25T10:21:12.621Z,92088.00
2022-12-25T10:22:07.716Z,92088.00
2022-12-25T10:23:06.820Z,92082.00
2022-12-25T10:24:06.758Z,92081.00
2022-12-25T10:25:06.699Z,92084.00
2022-12-25T10:26:06.680Z,92082.00
2022-12-25T10:27:06.705Z,92075.00
2022-12-25T10:28:06.666Z,92071.00
2022-12-25T10:29:06.699Z,92067.00
2022-12-25T10:30:06.639Z,92073.00
2022-12-25T10:31:06.685Z,92075.00
2022-12-25T10:32:06.630Z,92075.00
2022-12-25T10:33:07.537Z,92075.00
2022-12-25T10:34:06.611Z,92075.00
2022-12-25T10:35:06.617Z,92073.00
2022-12-25T10:36:06.612Z,92071.00
2022-12-25T10:37:06.605Z,92073.00
2022-12-25T10:38:06.571Z,92071.00
2022-12-25T10:39:06.583Z,92071.00
2022-12-25T10:40:06.558Z,92071.00
2022-12-25T10:41:06.582Z,92071.00
2022-12-25T10:42:06.624Z,92069.00
2022-12-25T10:43:06.669Z,92065.00
2022-12-25T10:44:06.792Z,92069.00
2022-12-25T10:45:06.806Z,92065.00
2022-12-25T10:46:06.857Z,92061.00
2022-12-25T10:47:06.897Z,92065.00
2022-12-25T10:48:08.008Z,92061.00
2022-12-25T10:49:06.931Z,92061.00
2022-12-25T10:50:06.892Z,92065.00
2022-12-25T10:51:06.892Z,92061.00
2022-12-25T10:52:06.937Z,92059.00
2022-12-25T10:53:07.038Z,92047.00
2022-12-25T10:54:07.127Z,92051.00
2022-12-25T10:55:07.091Z,92047.00
2022-12-25T10:56:07.212Z,92047.00
2022-12-25T10:57:07.185Z,92049.00
2022-12-25T10:58:07.252Z,92049.00
2022-12-25T10:59:07.282Z,92047.00
2022-12-25T11:00:07.349Z,92049.00
2022-12-25T11:01:07.384Z,92051.00
2022-12-25T11:02:07.555Z,92063.00
2022-12-25T11:03:07.724Z,92063.00
2022-12-25T11:04:07.601Z,92051.00
2022-12-25T11:05:07.593Z,92049.00
2022-12-25T11:06:07.663Z,92047.00
2022-12-25T11:07:07.707Z,92047.00
2022-12-25T11:08:07.820Z,92045.00
2022-12-25T11:09:07.872Z,92042.00
2022-12-25T11:10:07.845Z,92042.00
2022-12-25T11:11:07.897Z,92038.00
2022-12-25T11:12:07.949Z,92034.00
2022-12-25T11:13:08.005Z,92034.00
2022-12-25T11:14:08.058Z,92036.00
2022-12-25T11:15:08.085Z,92034.00
2022-12-25T11:16:08.193Z,92032.00
2022-12-25T11:17:08.199Z,92032.00
2022-12-25T11:18:08.249Z,92030.00
2022-12-25T11:19:08.305Z,92032.00
2022-12-25T11:20:08.336Z,92032.00
2022-12-25T11:21:08.393Z,92030.00
2022-12-25T11:22:08.460Z,92026.00
2022-12-25T11:23:08.498Z,92022.00
2022-12-25T11:24:08.543Z,92022.00
2022-12-25T11:25:08.596Z,92022.00
2022-12-25T11:26:08.644Z,92020.00
2022-12-25T11:27:08.711Z,92018.00
2022-12-25T11:28:08.750Z,92014.00
2022-12-25T11:29:08.796Z,92012.00
2022-12-25T11:30:14.342Z,92006.00
2022-12-25T11:31:09.876Z,92008.00
2022-12-25T11:32:08.826Z,92010.00
2022-12-25T11:33:08.820Z,92006.00
2022-12-25T11:34:08.819Z,92002.00
2022-12-25T11:35:08.793Z,92000.00
2022-12-25T11:36:08.800Z,91997.00
2022-12-25T11:37:08.781Z,91997.00
2022-12-25T11:38:08.767Z,91991.00
2022-12-25T11:39:08.799Z,91989.00
2022-12-25T11:40:08.766Z,91989.00
2022-12-25T11:41:08.734Z,91987.00
2022-12-25T11:42:08.734Z,91985.00
2022-12-25T11:43:08.723Z,91987.00
2022-12-25T11:44:08.735Z,91987.00